Time;durP1;ratioP1;P1;durP2;ratioP2;P2;SDS_P1;SDS_P2;PMS_P1;PMS_P2;Temp;Humidity;BMP_temperature;BMP_pressure;BME280_temperature;BME280_humidity;BME280_pressure;Samples;Min_cycle;Max_cycle;Signal;HPM_P1;HPM_P2
2023/02/18 00:02:24;;;;;;;7.97;5.27;;;12.20;99.90;;;;;;5046713;28;20418;-75
2023/02/18 00:05:12;;;;;;;7.10;5.00;;;12.20;99.90;;;;;;5047437;28;20422;-76
2023/02/18 00:07:58;;;;;;;8.30;5.30;;;12.10;99.90;;;;;;5043477;28;20439;-76
2023/02/18 00:10:43;;;;;;;7.90;5.53;;;12.10;99.90;;;;;;5043361;28;21674;-75
2023/02/18 00:13:29;;;;;;;7.63;5.10;;;12.10;99.90;;;;;;5052128;28;20424;-76
2023/02/18 00:16:15;;;;;;;5.70;4.40;;;12.10;99.90;;;;;;5049834;28;20554;-76
2023/02/18 00:19:03;;;;;;;7.03;5.47;;;12.10;99.90;;;;;;5048948;28;20545;-76
2023/02/18 00:21:50;;;;;;;8.83;5.70;;;12.10;99.90;;;;;;5038902;28;20514;-76
2023/02/18 00:24:35;;;;;;;5.50;4.97;;;12.10;99.90;;;;;;5045787;28;20440;-76
2023/02/18 00:27:21;;;;;;;7.23;6.00;;;12.10;99.90;;;;;;5049184;28;20467;-76
2023/02/18 00:30:08;;;;;;;9.33;6.40;;;12.10;99.90;;;;;;5041546;28;20443;-76
2023/02/18 00:32:54;;;;;;;11.50;6.07;;;12.10;99.90;;;;;;5046554;28;20752;-76
2023/02/18 00:35:39;;;;;;;7.73;6.20;;;12.10;99.90;;;;;;5049996;28;20557;-76
2023/02/18 00:38:26;;;;;;;6.63;5.93;;;12.10;99.90;;;;;;5044954;28;20983;-76
2023/02/18 00:41:12;;;;;;;7.47;6.17;;;12.10;99.90;;;;;;5044484;28;20795;-76
2023/02/18 00:43:57;;;;;;;8.03;6.80;;;12.10;99.90;;;;;;5052700;28;20434;-76
2023/02/18 00:46:46;;;;;;;12.80;6.63;;;12.20;99.90;;;;;;5051008;28;20522;-75
2023/02/18 00:49:32;;;;;;;6.77;6.10;;;12.20;99.90;;;;;;5052184;28;21373;-76
2023/02/18 00:52:18;;;;;;;7.90;6.10;;;12.20;99.90;;;;;;5045277;28;20484;-75
2023/02/18 00:55:06;;;;;;;9.27;7.10;;;12.20;99.90;;;;;;5042682;28;20887;-76
2023/02/18 00:57:51;;;;;;;6.40;5.80;;;12.30;99.90;;;;;;5043158;28;20447;-76
2023/02/18 01:00:38;;;;;;;12.10;6.80;;;12.30;99.90;;;;;;5047640;28;20810;-76
2023/02/18 01:03:24;;;;;;;7.80;6.50;;;12.30;99.90;;;;;;5045059;28;20497;-76
2023/02/18 01:06:11;;;;;;;8.60;6.67;;;12.30;99.90;;;;;;5049021;28;20461;-76
2023/02/18 01:08:56;;;;;;;7.27;6.27;;;12.30;99.90;;;;;;5043017;28;20476;-76
2023/02/18 01:11:43;;;;;;;7.80;6.40;;;12.30;99.90;;;;;;5036423;28;20488;-76
2023/02/18 01:14:29;;;;;;;7.60;6.50;;;12.20;99.90;;;;;;5053871;28;21055;-76
2023/02/18 01:17:14;;;;;;;7.90;6.90;;;12.20;99.90;;;;;;5054613;28;21083;-76
2023/02/18 01:20:00;;;;;;;7.93;6.93;;;12.20;99.90;;;;;;5040194;28;20984;-76
2023/02/18 01:22:46;;;;;;;11.73;6.97;;;12.20;99.90;;;;;;5042529;28;20955;-76
2023/02/18 01:25:32;;;;;;;12.70;7.47;;;12.30;99.90;;;;;;5047905;28;20766;-76
2023/02/18 01:28:20;;;;;;;9.10;6.00;;;12.20;99.90;;;;;;5052507;28;20561;-75
2023/02/18 01:31:07;;;;;;;8.43;6.17;;;12.20;99.90;;;;;;5041588;28;20414;-76
2023/02/18 01:33:53;;;;;;;8.77;7.07;;;12.20;99.90;;;;;;5057930;28;20553;-74
2023/02/18 01:36:39;;;;;;;7.30;6.50;;;12.20;99.90;;;;;;5048539;28;20605;-77
2023/02/18 01:39:24;;;;;;;9.20;7.60;;;12.20;99.90;;;;;;5045375;28;20439;-77
2023/02/18 01:42:19;;;;;;;7.60;6.67;;;12.20;99.90;;;;;;5048300;28;20418;-77
2023/02/18 01:45:43;;;;;;;8.40;7.10;;;12.30;99.90;;;;;;5047390;28;20967;-76
2023/02/18 01:48:32;;;;;;;8.07;7.27;;;12.30;99.90;;;;;;5051816;28;20462;-75
2023/02/18 01:51:22;;;;;;;8.43;6.20;;;12.20;99.90;;;;;;5046073;28;21114;-76
2023/02/18 01:54:11;;;;;;;9.47;7.60;;;12.30;99.90;;;;;;5045404;28;20430;-76
2023/02/18 01:57:01;;;;;;;7.10;6.40;;;12.20;99.90;;;;;;5048091;28;20466;-76
2023/02/18 01:59:51;;;;;;;9.70;6.27;;;12.30;99.90;;;;;;5038084;28;20740;-74
2023/02/18 02:02:42;;;;;;;7.30;6.60;;;12.30;99.90;;;;;;5047730;28;21043;-77
2023/02/18 02:05:32;;;;;;;6.90;6.20;;;12.20;99.90;;;;;;5047475;28;20467;-77
2023/02/18 02:08:18;;;;;;;7.13;5.93;;;12.30;99.90;;;;;;5053068;28;20542;-77
2023/02/18 02:11:14;;;;;;;6.20;5.33;;;12.30;99.90;;;;;;5049473;28;20448;-76
2023/02/18 02:14:13;;;;;;;6.83;5.60;;;12.20;99.90;;;;;;5044915;28;20468;-76
2023/02/18 02:17:04;;;;;;;8.27;5.60;;;12.20;99.90;;;;;;5047547;28;20988;-77
2023/02/18 02:20:28;;;;;;;6.17;5.13;;;12.20;99.90;;;;;;5038016;28;20783;-76
2023/02/18 02:23:52;;;;;;;7.50;5.90;;;12.20;99.90;;;;;;5041849;28;20466;-76
2023/02/18 02:27:11;;;;;;;7.63;5.10;;;12.30;99.90;;;;;;5048032;28;20487;-76
2023/02/18 02:30:24;;;;;;;7.97;4.83;;;12.30;99.90;;;;;;5043330;28;20924;-76
2023/02/18 02:33:57;;;;;;;6.70;5.03;;;12.30;99.90;;;;;;5052236;28;20450;-77
2023/02/18 02:36:51;;;;;;;5.80;5.20;;;12.20;99.90;;;;;;5042453;28;20450;-77
2023/02/18 02:39:44;;;;;;;6.83;4.73;;;12.20;99.90;;;;;;5037151;28;20422;-77
2023/02/18 02:42:39;;;;;;;6.40;5.60;;;12.30;99.90;;;;;;5042491;28;20426;-75
2023/02/18 02:45:37;;;;;;;5.40;4.90;;;12.30;99.90;;;;;;5045701;28;20447;-76
2023/02/18 02:48:31;;;;;;;5.27;4.77;;;12.30;99.90;;;;;;5041794;28;20468;-76
2023/02/18 02:51:24;;;;;;;6.00;5.10;;;12.30;99.90;;;;;;5042430;28;20428;-77
2023/02/18 02:54:15;;;;;;;5.93;5.07;;;12.30;99.90;;;;;;5047753;28;21035;-77
2023/02/18 02:57:29;;;;;;;7.57;5.27;;;12.30;99.90;;;;;;5051283;28;20442;-76
2023/02/18 03:00:18;;;;;;;6.47;4.57;;;12.30;99.90;;;;;;5050563;28;20968;-76
2023/02/18 03:03:31;;;;;;;9.17;5.60;;;12.30;99.90;;;;;;5036391;28;20406;-76
2023/02/18 03:06:37;;;;;;;6.00;4.40;;;12.30;99.90;;;;;;5041804;28;20561;-77
2023/02/18 03:09:36;;;;;;;5.80;5.03;;;12.30;99.90;;;;;;5038505;28;20444;-76
2023/02/18 03:12:31;;;;;;;4.73;4.23;;;12.30;99.90;;;;;;5039049;28;21042;-76
2023/02/18 03:15:23;;;;;;;5.50;4.67;;;12.40;99.90;;;;;;5048162;28;20489;-75
2023/02/18 03:18:18;;;;;;;5.13;4.33;;;12.40;99.90;;;;;;5033394;28;20754;-76
2023/02/18 03:21:09;;;;;;;7.63;4.57;;;12.30;99.90;;;;;;5042737;28;20418;-76
2023/02/18 03:23:59;;;;;;;5.20;4.70;;;12.30;99.90;;;;;;5049688;28;20518;-76
2023/02/18 03:26:50;;;;;;;6.83;4.67;;;12.30;99.90;;;;;;5053386;28;20441;-77
2023/02/18 03:29:36;;;;;;;5.33;4.33;;;12.30;99.90;;;;;;5039368;28;20464;-74
2023/02/18 03:32:25;;;;;;;6.77;4.33;;;12.40;99.90;;;;;;5049513;28;20560;-75
2023/02/18 03:35:15;;;;;;;5.20;4.07;;;12.40;99.90;;;;;;5044935;28;20542;-76
2023/02/18 03:38:07;;;;;;;6.40;4.87;;;12.40;99.90;;;;;;5037916;28;20422;-76
2023/02/18 03:40:53;;;;;;;6.63;5.27;;;12.40;99.90;;;;;;5052568;28;20435;-76
2023/02/18 03:43:40;;;;;;;6.23;4.80;;;12.40;99.90;;;;;;5047171;28;20566;-75
2023/02/18 03:46:26;;;;;;;5.80;5.03;;;12.30;99.90;;;;;;5041842;28;20464;-76
2023/02/18 03:49:13;;;;;;;6.70;4.87;;;12.30;99.90;;;;;;5046293;28;20537;-76
2023/02/18 03:51:59;;;;;;;5.03;4.20;;;12.30;99.90;;;;;;5048575;28;20462;-76
2023/02/18 03:54:44;;;;;;;6.30;4.70;;;12.20;99.90;;;;;;5047465;28;20546;-75
2023/02/18 03:57:30;;;;;;;3.97;3.57;;;12.30;99.90;;;;;;5045137;28;20472;-76
2023/02/18 04:00:18;;;;;;;4.67;4.23;;;12.30;99.90;;;;;;5045200;28;20465;-77
2023/02/18 04:03:04;;;;;;;4.47;3.40;;;12.30;99.90;;;;;;5054768;28;21066;-76
2023/02/18 04:05:49;;;;;;;4.90;4.27;;;12.30;99.90;;;;;;5054561;28;20475;-77
2023/02/18 04:08:36;;;;;;;5.13;3.90;;;12.30;99.90;;;;;;5048497;28;20440;-76
2023/02/18 04:11:21;;;;;;;6.07;3.90;;;12.20;99.90;;;;;;5052930;28;20498;-75
2023/02/18 04:14:08;;;;;;;5.77;3.73;;;12.30;99.90;;;;;;5050050;28;20439;-76
2023/02/18 04:16:55;;;;;;;5.70;4.90;;;12.30;99.90;;;;;;5045305;28;20468;-76
2023/02/18 04:19:40;;;;;;;4.83;4.10;;;12.30;99.90;;;;;;5061276;28;20525;-76
2023/02/18 04:22:26;;;;;;;6.73;5.40;;;12.30;99.90;;;;;;5051763;28;20844;-76
2023/02/18 04:25:11;;;;;;;7.80;5.83;;;12.20;99.90;;;;;;5049833;28;20645;-76
2023/02/18 04:27:57;;;;;;;6.33;5.00;;;12.20;99.90;;;;;;5046423;28;20525;-77
2023/02/18 04:30:44;;;;;;;7.23;5.53;;;12.30;99.90;;;;;;5058620;28;20559;-76
2023/02/18 04:33:31;;;;;;;6.20;4.90;;;12.30;99.90;;;;;;5063474;28;20490;-76
2023/02/18 04:36:17;;;;;;;7.07;6.07;;;12.30;99.90;;;;;;5048744;28;20506;-75
2023/02/18 04:39:03;;;;;;;10.80;6.00;;;12.30;99.90;;;;;;5061585;28;20431;-77
2023/02/18 04:41:49;;;;;;;5.50;5.00;;;12.30;99.90;;;;;;5056873;28;20482;-76
2023/02/18 04:44:34;;;;;;;6.50;4.90;;;12.30;99.90;;;;;;5054994;28;20557;-76
2023/02/18 04:47:20;;;;;;;6.90;6.10;;;12.20;99.90;;;;;;5042758;28;20467;-76
2023/02/18 04:50:08;;;;;;;6.23;5.03;;;12.20;99.90;;;;;;5052389;28;20529;-76
2023/02/18 04:52:54;;;;;;;9.27;6.10;;;12.20;99.90;;;;;;5053802;28;21108;-76
2023/02/18 04:55:40;;;;;;;6.70;5.53;;;12.20;99.90;;;;;;5049204;28;20421;-77
2023/02/18 04:58:25;;;;;;;7.20;6.10;;;12.20;99.90;;;;;;5056965;28;20470;-77
2023/02/18 05:01:11;;;;;;;7.20;6.30;;;12.30;99.90;;;;;;5059457;28;20423;-76
2023/02/18 05:03:57;;;;;;;6.73;5.60;;;12.30;99.90;;;;;;5051200;28;20927;-75
2023/02/18 05:06:44;;;;;;;6.60;5.87;;;12.30;99.90;;;;;;5045914;28;20490;-76
2023/02/18 05:09:30;;;;;;;7.37;6.33;;;12.30;99.90;;;;;;5055322;28;20423;-77
2023/02/18 05:12:15;;;;;;;8.17;6.53;;;12.40;99.90;;;;;;5054411;28;20561;-76
2023/02/18 05:15:01;;;;;;;7.90;6.53;;;12.40;99.90;;;;;;5058979;28;20422;-76
2023/02/18 05:17:47;;;;;;;8.80;7.30;;;12.30;99.90;;;;;;5052413;28;20817;-76
2023/02/18 05:20:32;;;;;;;8.03;6.83;;;12.30;99.90;;;;;;5047350;28;20514;-76
2023/02/18 05:23:20;;;;;;;8.80;7.37;;;12.30;99.90;;;;;;5059334;28;20940;-77
2023/02/18 05:26:05;;;;;;;7.27;6.40;;;12.30;99.90;;;;;;5056541;28;20822;-77
2023/02/18 05:28:51;;;;;;;8.07;6.73;;;12.30;99.90;;;;;;5064178;28;20431;-76
2023/02/18 05:31:37;;;;;;;10.87;7.33;;;12.40;99.90;;;;;;5050767;28;20470;-75
2023/02/18 05:34:22;;;;;;;8.03;7.17;;;12.30;99.90;;;;;;5068471;28;20452;-76
2023/02/18 05:37:08;;;;;;;8.70;6.87;;;12.30;99.90;;;;;;5049072;28;20552;-76
2023/02/18 05:39:55;;;;;;;13.83;7.47;;;12.30;99.90;;;;;;5059546;28;20428;-76
2023/02/18 05:42:40;;;;;;;10.47;7.10;;;12.20;99.90;;;;;;5047694;28;20470;-76
2023/02/18 05:45:26;;;;;;;8.90;6.70;;;12.20;99.90;;;;;;5047998;28;20615;-76
2023/02/18 05:48:12;;;;;;;8.63;7.27;;;12.20;99.90;;;;;;5054723;28;20439;-76
2023/02/18 05:50:57;;;;;;;8.63;7.50;;;12.20;99.90;;;;;;5057341;28;20569;-77
2023/02/18 05:53:43;;;;;;;8.27;7.40;;;12.20;99.90;;;;;;5060075;28;20474;-76
2023/02/18 05:56:30;;;;;;;11.00;7.57;;;12.20;99.90;;;;;;5051040;28;20457;-76
2023/02/18 05:59:16;;;;;;;9.00;7.87;;;12.20;99.90;;;;;;5051625;28;20847;-77
2023/02/18 06:02:02;;;;;;;9.83;7.60;;;12.20;99.90;;;;;;5048136;28;20505;-76
2023/02/18 06:04:47;;;;;;;10.77;7.03;;;12.20;99.90;;;;;;5047070;28;20418;-76
2023/02/18 06:07:33;;;;;;;10.63;7.47;;;12.20;99.90;;;;;;5050553;28;20805;-76
2023/02/18 06:10:19;;;;;;;8.03;7.10;;;12.20;99.90;;;;;;5045349;28;20466;-77
2023/02/18 06:13:06;;;;;;;16.50;7.40;;;12.20;99.90;;;;;;5052916;28;21000;-75
2023/02/18 06:15:53;;;;;;;8.67;7.37;;;12.30;99.90;;;;;;5041921;28;20494;-74
2023/02/18 06:18:39;;;;;;;9.83;7.97;;;12.20;99.90;;;;;;5057153;28;20404;-77
2023/02/18 06:21:25;;;;;;;9.63;7.53;;;12.20;99.90;;;;;;5066845;28;20434;-76
2023/02/18 06:24:10;;;;;;;10.00;7.27;;;12.20;99.90;;;;;;5046053;28;20394;-77
2023/02/18 06:26:56;;;;;;;8.70;7.03;;;12.20;99.90;;;;;;5057061;28;20460;-76
2023/02/18 06:29:43;;;;;;;8.13;7.27;;;12.20;99.90;;;;;;5058143;28;20435;-76
2023/02/18 06:32:29;;;;;;;9.60;8.50;;;12.20;99.90;;;;;;5052561;28;20913;-76
2023/02/18 06:35:14;;;;;;;11.70;8.33;;;12.20;99.90;;;;;;5040100;28;20443;-76
2023/02/18 06:38:00;;;;;;;9.27;7.53;;;12.20;99.90;;;;;;5063399;28;20422;-76
2023/02/18 06:40:46;;;;;;;11.80;6.90;;;12.20;99.90;;;;;;5061341;28;20427;-75
2023/02/18 06:43:32;;;;;;;13.30;6.63;;;12.20;99.90;;;;;;5060921;28;20471;-75
2023/02/18 06:46:19;;;;;;;9.60;7.43;;;12.20;99.90;;;;;;5049399;28;20487;-77
2023/02/18 06:49:05;;;;;;;8.60;7.20;;;12.20;99.90;;;;;;5048774;28;20394;-76
2023/02/18 06:51:50;;;;;;;9.20;7.63;;;12.20;99.90;;;;;;5054981;28;20937;-76
2023/02/18 06:54:36;;;;;;;9.07;7.63;;;12.30;99.90;;;;;;5042102;28;20449;-76
2023/02/18 06:57:22;;;;;;;7.63;6.83;;;12.20;99.90;;;;;;5056220;28;20452;-77
2023/02/18 07:00:09;;;;;;;47.87;24.87;;;12.20;99.90;;;;;;5059762;28;20874;-76
2023/02/18 07:02:56;;;;;;;58.60;27.60;;;12.30;99.90;;;;;;5055382;28;20401;-74
2023/02/18 07:05:42;;;;;;;37.50;17.50;;;12.20;99.90;;;;;;5047912;28;20983;-74
2023/02/18 07:08:29;;;;;;;70.93;27.97;;;12.20;99.90;;;;;;5056402;28;20399;-75
2023/02/18 07:11:15;;;;;;;22.10;13.37;;;12.20;99.90;;;;;;5054132;28;20763;-75
2023/02/18 07:14:00;;;;;;;24.53;14.90;;;12.20;99.90;;;;;;5052470;28;20558;-76
2023/02/18 07:16:45;;;;;;;32.20;18.40;;;12.20;99.90;;;;;;5060675;28;20525;-76
2023/02/18 07:19:33;;;;;;;15.30;10.47;;;12.30;99.90;;;;;;5053352;28;20537;-75
2023/02/18 07:22:18;;;;;;;22.20;15.53;;;12.30;99.90;;;;;;5064785;28;20427;-77
2023/02/18 07:25:04;;;;;;;12.63;10.07;;;12.30;99.90;;;;;;5034970;28;20975;-76
2023/02/18 07:27:50;;;;;;;13.63;9.63;;;12.30;99.90;;;;;;5062002;28;20430;-75
2023/02/18 07:30:35;;;;;;;16.20;10.80;;;12.40;99.90;;;;;;5054678;28;20489;-75
2023/02/18 07:33:21;;;;;;;14.07;10.70;;;12.40;99.90;;;;;;5061068;28;20471;-76
2023/02/18 07:36:09;;;;;;;15.33;11.20;;;12.40;99.90;;;;;;5042044;28;20475;-77
2023/02/18 07:38:55;;;;;;;19.90;13.43;;;12.50;99.90;;;;;;5056731;28;20461;-76
2023/02/18 07:41:41;;;;;;;15.13;10.60;;;12.50;99.90;;;;;;5062995;28;20565;-75
2023/02/18 07:44:27;;;;;;;18.37;10.87;;;12.50;99.90;;;;;;5055382;28;20426;-75
2023/02/18 07:47:16;;;;;;;14.33;9.20;;;12.40;99.90;;;;;;5057875;28;20434;-75
2023/02/18 07:50:01;;;;;;;16.83;12.10;;;12.50;99.90;;;;;;5053240;28;20392;-76
2023/02/18 07:52:49;;;;;;;9.93;8.43;;;12.50;99.90;;;;;;5046909;28;20465;-76
2023/02/18 07:58:36;;;;;;;9.50;7.80;;;12.60;99.90;;;;;;5054187;28;21070;-76
2023/02/18 08:01:22;;;;;;;11.13;9.13;;;12.60;99.90;;;;;;5057104;28;20405;-76
2023/02/18 08:04:08;;;;;;;13.30;10.17;;;12.60;99.90;;;;;;5055819;28;20427;-76
2023/02/18 08:06:54;;;;;;;12.33;8.50;;;12.60;99.90;;;;;;5056301;28;20462;-76
2023/02/18 08:09:41;;;;;;;15.87;11.40;;;12.60;99.90;;;;;;5051774;28;20406;-76
2023/02/18 08:12:27;;;;;;;12.53;8.97;;;12.60;99.90;;;;;;5053649;28;20518;-75
2023/02/18 08:15:13;;;;;;;10.80;9.07;;;12.60;99.90;;;;;;5042717;28;20538;-76
2023/02/18 08:17:59;;;;;;;10.60;8.73;;;12.60;99.90;;;;;;5059381;28;20419;-75
2023/02/18 08:20:46;;;;;;;10.60;8.50;;;12.60;99.90;;;;;;5052843;28;20467;-76
2023/02/18 08:23:31;;;;;;;9.90;7.47;;;12.60;99.90;;;;;;5053363;28;20398;-75
2023/02/18 08:26:18;;;;;;;10.50;8.63;;;12.60;99.90;;;;;;5052245;28;20429;-77
2023/02/18 08:29:04;;;;;;;11.53;8.90;;;12.60;99.90;;;;;;5059230;28;20416;-76
2023/02/18 08:31:51;;;;;;;10.50;8.60;;;12.60;99.90;;;;;;5061314;28;20411;-76
2023/02/18 08:34:37;;;;;;;9.80;8.10;;;12.60;99.90;;;;;;5053142;28;20546;-76
2023/02/18 08:37:23;;;;;;;10.73;8.40;;;12.70;99.90;;;;;;5086872;22;20489;-74
2023/02/18 08:40:10;;;;;;;20.37;9.00;;;12.70;99.90;;;;;;5078381;28;20408;-73
2023/02/18 08:42:57;;;;;;;12.63;8.83;;;12.80;99.90;;;;;;5084414;28;20434;-73
2023/02/18 08:45:43;;;;;;;9.07;7.47;;;12.80;99.90;;;;;;5067343;28;20417;-74
2023/02/18 08:48:29;;;;;;;10.20;7.67;;;12.70;99.90;;;;;;5078237;28;20450;-73
2023/02/18 08:51:17;;;;;;;8.17;7.33;;;12.70;99.90;;;;;;5080285;28;20451;-73
2023/02/18 08:58:12;;;;;;;8.73;6.67;;;12.70;99.90;;;;;;5111056;27;20579;-74
2023/02/18 09:01:02;;;;;;;8.97;7.50;;;12.80;99.90;;;;;;5088745;28;20420;-71
2023/02/18 09:03:47;;;;;;;10.10;7.27;;;12.80;99.90;;;;;;5081168;28;20459;-75
2023/02/18 09:06:37;;;;;;;10.70;7.03;;;12.70;99.90;;;;;;5087679;28;20427;-75
2023/02/18 09:09:23;;;;;;;11.43;8.20;;;12.70;99.90;;;;;;5092804;28;20427;-75
2023/02/18 09:12:09;;;;;;;10.60;8.30;;;12.70;99.90;;;;;;5087986;28;21074;-75
2023/02/18 09:14:55;;;;;;;11.40;8.10;;;12.70;99.90;;;;;;5079908;28;20445;-74
2023/02/18 09:17:41;;;;;;;9.80;8.30;;;12.60;99.90;;;;;;5079580;28;20684;-74
2023/02/18 09:20:27;;;;;;;9.17;8.27;;;12.50;99.90;;;;;;5091685;28;20405;-74
2023/02/18 09:23:14;;;;;;;10.27;8.03;;;12.40;99.90;;;;;;5075180;28;20429;-73
2023/02/18 09:26:00;;;;;;;11.30;8.90;;;12.40;99.90;;;;;;5092466;28;20429;-71
2023/02/18 09:28:48;;;;;;;11.57;8.50;;;12.50;99.90;;;;;;5091577;28;20408;-71
2023/02/18 09:31:36;;;;;;;9.47;7.83;;;13.20;99.90;;;;;;5093078;28;20424;-72
2023/02/18 09:34:22;;;;;;;11.27;9.20;;;13.20;99.90;;;;;;5073348;28;20946;-72
2023/02/18 09:37:08;;;;;;;10.80;9.00;;;13.20;99.90;;;;;;5082155;28;20589;-73
2023/02/18 09:39:53;;;;;;;13.00;9.30;;;13.00;99.90;;;;;;5096360;28;20720;-74
2023/02/18 09:42:39;;;;;;;9.90;8.33;;;12.90;99.90;;;;;;5083589;28;20800;-75
2023/02/18 09:45:26;;;;;;;10.70;9.00;;;12.90;99.90;;;;;;5077735;28;20402;-75
2023/02/18 09:48:12;;;;;;;10.13;8.77;;;12.80;99.90;;;;;;5095055;28;20469;-74
2023/02/18 09:50:58;;;;;;;12.60;9.40;;;12.80;99.90;;;;;;5080192;28;20415;-74
2023/02/18 09:53:45;;;;;;;12.90;9.73;;;12.70;99.90;;;;;;5077422;28;20512;-74
2023/02/18 09:56:34;;;;;;;11.00;9.20;;;12.70;99.90;;;;;;5077630;28;20487;-74
2023/02/18 09:59:22;;;;;;;10.50;9.10;;;12.60;99.90;;;;;;5080711;28;20886;-74
2023/02/18 10:02:15;;;;;;;10.53;8.87;;;12.60;99.90;;;;;;5080787;28;20436;-74
2023/02/18 10:05:03;;;;;;;9.40;8.40;;;12.60;99.90;;;;;;5079063;28;20429;-74
2023/02/18 10:07:51;;;;;;;10.27;8.87;;;12.70;99.90;;;;;;5083814;28;20538;-74
2023/02/18 10:10:41;;;;;;;10.27;8.90;;;12.60;99.90;;;;;;5062817;28;20411;-74
2023/02/18 10:13:30;;;;;;;16.53;11.87;;;12.60;99.90;;;;;;5061162;28;20417;-73
2023/02/18 10:16:18;;;;;;;70.87;34.67;;;12.60;99.90;;;;;;5069086;28;20398;-74
2023/02/18 10:19:17;;;;;;;81.03;29.00;;;12.60;99.90;;;;;;5077903;28;20451;-74
2023/02/18 10:22:08;;;;;;;66.90;25.33;;;12.60;99.90;;;;;;5058563;28;20398;-73
2023/02/18 10:24:58;;;;;;;30.03;13.80;;;12.70;99.90;;;;;;5071031;28;20405;-73
2023/02/18 10:27:44;;;;;;;23.40;13.73;;;12.70;99.90;;;;;;5079566;28;20457;-74
2023/02/18 10:30:35;;;;;;;48.73;26.20;;;12.70;99.90;;;;;;5089057;28;20939;-74
2023/02/18 10:33:32;;;;;;;28.00;16.40;;;12.60;99.90;;;;;;5070532;28;20531;-74
2023/02/18 10:36:25;;;;;;;13.17;10.70;;;12.60;99.90;;;;;;5064392;28;20945;-74
2023/02/18 10:39:35;;;;;;;16.70;10.87;;;12.60;99.90;;;;;;5089572;28;20405;-74
2023/02/18 10:42:33;;;;;;;12.70;10.07;;;12.60;99.90;;;;;;5071096;28;20425;-74
2023/02/18 10:45:31;;;;;;;13.20;11.23;;;12.70;99.90;;;;;;5079141;28;20430;-74
2023/02/18 10:48:32;;;;;;;9.93;8.70;;;12.70;99.90;;;;;;5071394;28;20826;-74
2023/02/18 10:51:21;;;;;;;15.00;10.47;;;12.70;99.90;;;;;;5085118;28;20806;-74
2023/02/18 10:54:07;;;;;;;16.07;11.07;;;12.70;99.90;;;;;;5073339;28;20427;-73
2023/02/18 10:56:59;;;;;;;11.13;9.70;;;12.70;99.90;;;;;;5069886;28;20534;-74
2023/02/18 10:59:55;;;;;;;11.23;9.80;;;12.80;99.90;;;;;;5071436;28;20437;-74
2023/02/18 11:02:42;;;;;;;14.27;10.73;;;12.70;99.90;;;;;;5080257;28;20424;-74
2023/02/18 11:05:29;;;;;;;14.13;11.30;;;12.70;99.90;;;;;;5069391;28;20401;-74
2023/02/18 11:08:27;;;;;;;14.50;10.63;;;12.70;99.90;;;;;;5064874;28;20812;-74
2023/02/18 11:11:20;;;;;;;12.60;10.80;;;12.70;99.90;;;;;;5066319;28;20512;-74
2023/02/18 11:14:47;;;;;;;11.10;10.00;;;12.70;99.90;;;;;;5073643;28;20552;-73
2023/02/18 11:17:37;;;;;;;9.93;8.60;;;12.70;99.90;;;;;;5059631;28;20475;-74
2023/02/18 11:20:30;;;;;;;12.40;8.07;;;12.70;99.90;;;;;;5070864;28;20804;-74
2023/02/18 11:23:25;;;;;;;9.97;8.67;;;12.70;99.90;;;;;;5059154;28;20474;-74
2023/02/18 11:26:14;;;;;;;12.43;8.77;;;12.70;99.90;;;;;;5061532;28;20462;-74
2023/02/18 11:29:03;;;;;;;9.07;7.40;;;12.80;99.90;;;;;;5080354;28;20435;-74
2023/02/18 11:31:53;;;;;;;8.70;7.37;;;12.80;99.90;;;;;;5079677;28;20431;-74
2023/02/18 11:34:44;;;;;;;12.67;7.70;;;12.80;99.90;;;;;;5065405;28;20429;-74
2023/02/18 11:37:34;;;;;;;9.40;7.07;;;12.90;99.90;;;;;;5069333;28;20469;-74
2023/02/18 11:40:23;;;;;;;8.50;6.87;;;12.90;99.90;;;;;;5072552;28;20456;-75
2023/02/18 11:43:14;;;;;;;11.00;6.90;;;12.80;99.90;;;;;;5079497;28;20764;-74
2023/02/18 11:46:11;;;;;;;7.13;6.00;;;12.80;99.90;;;;;;5072233;28;20934;-74
2023/02/18 11:49:19;;;;;;;8.47;6.53;;;12.90;99.90;;;;;;5075273;28;20434;-75
2023/02/18 11:52:23;;;;;;;8.50;5.90;;;13.00;99.90;;;;;;5074441;28;21010;-74
2023/02/18 11:55:16;;;;;;;11.70;6.20;;;13.00;99.90;;;;;;5069441;28;20402;-74
2023/02/18 11:58:05;;;;;;;6.63;5.40;;;13.00;99.90;;;;;;5074562;28;20598;-74
2023/02/18 12:00:55;;;;;;;6.40;5.73;;;13.00;99.90;;;;;;5072141;28;20450;-74
2023/02/18 12:03:46;;;;;;;7.53;6.07;;;13.00;99.90;;;;;;5059780;28;20970;-75
2023/02/18 12:06:37;;;;;;;8.53;6.33;;;12.90;99.90;;;;;;5056001;28;20481;-74
2023/02/18 12:09:29;;;;;;;8.33;4.87;;;13.00;99.90;;;;;;5067225;28;20443;-75
2023/02/18 12:12:19;;;;;;;6.23;5.17;;;12.90;99.90;;;;;;5066012;28;20913;-74
2023/02/18 12:15:06;;;;;;;7.10;5.10;;;12.90;99.90;;;;;;5064112;28;20425;-74
2023/02/18 12:18:09;;;;;;;8.43;4.93;;;12.90;99.90;;;;;;5079131;28;20856;-74
2023/02/18 12:21:11;;;;;;;13.17;6.47;;;12.90;99.90;;;;;;5075433;28;20455;-74
2023/02/18 12:24:11;;;;;;;8.00;5.43;;;13.00;99.90;;;;;;5065236;28;20419;-74
2023/02/18 12:27:08;;;;;;;9.13;4.93;;;13.00;99.90;;;;;;5069737;28;20494;-74
2023/02/18 12:30:20;;;;;;;8.60;5.53;;;13.00;99.90;;;;;;5077951;28;20950;-74
2023/02/18 12:33:19;;;;;;;8.30;6.10;;;12.90;99.90;;;;;;5067047;28;20822;-74
2023/02/18 12:36:14;;;;;;;9.80;5.17;;;13.00;99.90;;;;;;5058242;28;20469;-75
2023/02/18 12:39:17;;;;;;;6.90;5.20;;;12.90;99.90;;;;;;5077117;28;20509;-74
2023/02/18 12:42:35;;;;;;;5.70;4.90;;;13.00;99.90;;;;;;5070835;28;20424;-74
2023/02/18 12:45:44;;;;;;;10.33;5.13;;;13.00;99.90;;;;;;5062463;28;20493;-74
2023/02/18 12:48:58;;;;;;;6.00;4.97;;;13.10;99.90;;;;;;5072107;28;20447;-74
2023/02/18 12:51:56;;;;;;;6.80;5.57;;;13.10;99.90;;;;;;5067346;28;21074;-74
2023/02/18 12:55:01;;;;;;;6.10;5.50;;;13.10;99.90;;;;;;5060782;28;20996;-74
2023/02/18 12:57:53;;;;;;;6.40;5.40;;;13.10;99.90;;;;;;5075745;28;20527;-74
2023/02/18 13:00:56;;;;;;;7.50;6.20;;;13.10;99.90;;;;;;5073155;28;20455;-74
2023/02/18 13:04:00;;;;;;;7.57;5.70;;;13.10;99.90;;;;;;5067497;28;20485;-74
2023/02/18 13:07:19;;;;;;;7.70;6.07;;;13.20;99.90;;;;;;5063788;28;20426;-75
2023/02/18 13:10:42;;;;;;;7.70;5.67;;;13.20;99.90;;;;;;5070980;28;20915;-74
2023/02/18 13:13:33;;;;;;;8.23;5.90;;;13.30;99.90;;;;;;5059374;28;20427;-74
2023/02/18 13:16:21;;;;;;;7.50;5.03;;;13.30;99.90;;;;;;5078774;28;21059;-74
2023/02/18 13:19:17;;;;;;;8.37;5.77;;;13.20;99.90;;;;;;5063290;28;20493;-74
2023/02/18 13:22:06;;;;;;;9.33;5.67;;;13.20;99.90;;;;;;5069488;28;20458;-74
2023/02/18 13:24:54;;;;;;;6.87;5.57;;;13.20;99.90;;;;;;5061152;28;20596;-74
2023/02/18 13:27:45;;;;;;;5.97;5.13;;;13.20;99.90;;;;;;5066460;28;20448;-74
2023/02/18 13:30:38;;;;;;;8.40;5.37;;;13.20;99.90;;;;;;5073824;28;20405;-74
2023/02/18 13:33:32;;;;;;;6.73;5.33;;;13.20;99.90;;;;;;5075791;28;20402;-74
2023/02/18 13:36:32;;;;;;;13.73;9.63;;;13.20;99.90;;;;;;5063365;28;20427;-75
2023/02/18 13:39:20;;;;;;;13.33;6.70;;;13.30;99.90;;;;;;5076750;28;20410;-75
2023/02/18 13:42:26;;;;;;;19.83;13.10;;;13.30;99.90;;;;;;5069355;28;20398;-75
2023/02/18 13:45:30;;;;;;;10.97;6.73;;;13.30;99.90;;;;;;5056963;28;20446;-74
2023/02/18 13:48:26;;;;;;;9.70;6.87;;;13.30;99.90;;;;;;5070805;28;20464;-75
2023/02/18 13:51:14;;;;;;;8.57;6.10;;;13.30;99.90;;;;;;5063228;28;20491;-74
2023/02/18 13:54:16;;;;;;;9.40;7.07;;;13.20;99.90;;;;;;5059915;28;20570;-74
2023/02/18 13:57:03;;;;;;;15.60;10.03;;;13.30;99.90;;;;;;5073219;28;20457;-75
2023/02/18 13:59:52;;;;;;;5.37;4.83;;;13.30;99.90;;;;;;5079100;28;20445;-74
2023/02/18 14:02:57;;;;;;;12.23;6.57;;;13.30;99.90;;;;;;5065200;28;20547;-75
2023/02/18 14:05:43;;;;;;;6.97;5.37;;;13.30;99.90;;;;;;5082908;28;21032;-74
2023/02/18 14:08:34;;;;;;;5.80;4.80;;;13.30;99.90;;;;;;5078204;28;21061;-74
2023/02/18 14:11:41;;;;;;;9.40;5.33;;;13.30;99.90;;;;;;5073672;28;20969;-74
2023/02/18 14:14:38;;;;;;;9.77;3.90;;;13.30;99.90;;;;;;5068784;28;20453;-74
2023/02/18 14:17:42;;;;;;;6.77;4.50;;;13.30;99.90;;;;;;5072917;28;20947;-74
2023/02/18 14:20:47;;;;;;;5.30;4.37;;;13.30;99.90;;;;;;5076375;28;20769;-74
2023/02/18 14:23:42;;;;;;;6.73;5.00;;;13.30;99.90;;;;;;5073501;28;20422;-74
2023/02/18 14:26:43;;;;;;;5.63;3.80;;;13.30;99.90;;;;;;5075300;28;20507;-74
2023/02/18 14:29:31;;;;;;;6.03;3.93;;;13.30;99.90;;;;;;5079932;28;20467;-74
2023/02/18 14:32:19;;;;;;;4.50;3.80;;;13.20;99.90;;;;;;5078504;28;20963;-74
2023/02/18 14:35:20;;;;;;;4.73;3.30;;;13.20;99.90;;;;;;5068784;28;20442;-74
2023/02/18 14:38:27;;;;;;;4.37;3.73;;;13.10;99.90;;;;;;5074227;28;20420;-74
2023/02/18 14:41:25;;;;;;;5.23;3.97;;;13.10;99.90;;;;;;5074010;28;20493;-74
2023/02/18 14:44:30;;;;;;;7.43;3.93;;;13.10;99.90;;;;;;5063290;28;20593;-74
2023/02/18 14:47:28;;;;;;;4.30;3.37;;;13.00;99.90;;;;;;5071767;28;21047;-75
2023/02/18 14:50:17;;;;;;;8.40;5.20;;;13.00;99.90;;;;;;5074264;28;20412;-74
2023/02/18 14:53:07;;;;;;;6.70;3.97;;;13.00;99.90;;;;;;5061735;28;21087;-74